Time;durP1;ratioP1;P1;durP2;ratioP2;P2;SDS_P1;SDS_P2;PMS_P1;PMS_P2;Temp;Humidity;BMP_temperature;BMP_pressure;BME280_temperature;BME280_humidity;BME280_pressure;Samples;Min_cycle;Max_cycle;Signal;HPM_P1;HPM_P2
2023/06/19 00:00:15;;;;;;;19.48;12.50;;;16.20;99.90;;;;;;5031989;28;20069;-74
2023/06/19 00:02:41;;;;;;;18.02;11.85;;;16.20;99.90;;;;;;5031971;28;20037;-75
2023/06/19 00:05:07;;;;;;;17.98;12.50;;;16.20;99.90;;;;;;5031968;28;20021;-74
2023/06/19 00:07:34;;;;;;;20.67;13.50;;;16.20;99.90;;;;;;5031532;28;20033;-74
2023/06/19 00:10:00;;;;;;;20.10;13.23;;;16.30;99.90;;;;;;5014026;28;20416;-75
2023/06/19 00:12:25;;;;;;;19.10;13.25;;;16.30;99.90;;;;;;5030594;28;20116;-74
2023/06/19 00:14:51;;;;;;;21.73;13.07;;;16.40;99.90;;;;;;5031866;28;20064;-74
2023/06/19 00:17:17;;;;;;;20.70;13.52;;;16.40;99.90;;;;;;5032102;28;20079;-74
2023/06/19 00:19:43;;;;;;;23.50;13.25;;;16.40;99.90;;;;;;5046918;28;20421;-74
2023/06/19 00:22:09;;;;;;;18.90;13.63;;;16.40;99.90;;;;;;5030366;28;20370;-74
2023/06/19 00:24:35;;;;;;;40.15;14.45;;;16.40;99.90;;;;;;5032818;28;20021;-74
2023/06/19 00:27:02;;;;;;;21.30;14.30;;;16.30;99.90;;;;;;5035210;28;20025;-74
2023/06/19 00:29:31;;;;;;;48.13;15.85;;;16.20;99.90;;;;;;5035450;28;20033;-74
2023/06/19 00:31:57;;;;;;;34.30;15.55;;;16.10;99.90;;;;;;5035360;28;20029;-75
2023/06/19 00:34:25;;;;;;;50.28;16.67;;;16.10;99.90;;;;;;5035600;28;20159;-75
2023/06/19 00:36:56;;;;;;;35.38;18.02;;;16.10;99.90;;;;;;5017484;28;20414;-74
2023/06/19 00:39:22;;;;;;;25.40;17.15;;;16.00;99.90;;;;;;5035243;28;20459;-75
2023/06/19 00:41:49;;;;;;;27.83;17.40;;;16.00;99.90;;;;;;5035739;28;20029;-75
2023/06/19 00:44:15;;;;;;;26.10;15.50;;;16.00;99.90;;;;;;5035382;28;20064;-74
2023/06/19 00:46:41;;;;;;;28.77;16.85;;;16.00;99.90;;;;;;5035459;28;20037;-74
2023/06/19 00:49:10;;;;;;;26.65;16.90;;;16.00;99.90;;;;;;5035102;28;20095;-74
2023/06/19 00:51:35;;;;;;;29.15;16.05;;;15.90;99.90;;;;;;5035210;28;20075;-74
2023/06/19 00:54:01;;;;;;;103.93;16.77;;;15.90;99.90;;;;;;5035480;28;20025;-74
2023/06/19 00:56:28;;;;;;;163.77;16.80;;;15.90;99.90;;;;;;5035080;28;20106;-74
2023/06/19 00:58:55;;;;;;;35.50;15.90;;;15.90;99.90;;;;;;5034805;28;20045;-74
2023/06/19 01:01:23;;;;;;;29.77;15.85;;;15.90;99.90;;;;;;5034845;28;20055;-74
2023/06/19 01:03:49;;;;;;;43.72;14.52;;;15.90;99.90;;;;;;5016790;28;20030;-74
2023/06/19 01:06:21;;;;;;;37.88;16.05;;;15.90;99.90;;;;;;5034359;28;20444;-76
2023/06/19 01:09:04;;;;;;;30.50;15.68;;;15.80;99.90;;;;;;5034778;28;20024;-74
2023/06/19 01:11:37;;;;;;;25.83;14.02;;;15.80;99.90;;;;;;5016777;28;20026;-74
2023/06/19 01:14:14;;;;;;;26.77;15.68;;;15.70;99.90;;;;;;5034397;28;20085;-74
2023/06/19 01:16:40;;;;;;;24.92;15.77;;;15.80;99.90;;;;;;5034270;28;20076;-74
2023/06/19 01:19:10;;;;;;;23.52;14.02;;;15.80;99.90;;;;;;5034102;28;20031;-76
2023/06/19 01:21:37;;;;;;;23.25;13.68;;;15.80;99.90;;;;;;5034225;28;20076;-76
2023/06/19 01:24:03;;;;;;;24.75;14.88;;;15.80;99.90;;;;;;5034412;28;20037;-76
2023/06/19 01:26:28;;;;;;;22.00;14.68;;;15.80;99.90;;;;;;5033029;28;20017;-76
2023/06/19 01:28:55;;;;;;;25.75;14.73;;;15.80;99.90;;;;;;5034208;28;20083;-76
2023/06/19 01:31:28;;;;;;;25.73;15.20;;;15.80;99.90;;;;;;5033987;28;20079;-76
2023/06/19 01:33:56;;;;;;;23.50;14.35;;;15.70;99.90;;;;;;5016363;28;20082;-76
2023/06/19 01:36:24;;;;;;;22.27;13.73;;;15.80;99.90;;;;;;5033751;28;20029;-76
2023/06/19 01:38:51;;;;;;;26.35;14.77;;;15.80;99.90;;;;;;5034135;28;20076;-73
2023/06/19 01:41:18;;;;;;;25.70;14.60;;;15.80;99.90;;;;;;5033872;28;20460;-77
2023/06/19 01:43:45;;;;;;;25.48;15.25;;;15.70;99.90;;;;;;5016004;28;20024;-76
2023/06/19 01:46:11;;;;;;;26.80;15.68;;;15.70;99.90;;;;;;5033786;28;20026;-77
2023/06/19 01:48:38;;;;;;;25.90;14.90;;;15.60;99.90;;;;;;5033604;28;20023;-76
2023/06/19 01:51:04;;;;;;;24.83;15.68;;;15.60;99.90;;;;;;5033621;28;20053;-76
2023/06/19 01:53:31;;;;;;;25.02;15.45;;;15.60;99.90;;;;;;5033824;28;20535;-76
2023/06/19 01:55:58;;;;;;;23.90;14.88;;;15.60;99.90;;;;;;5033798;28;20364;-76
2023/06/19 01:58:24;;;;;;;21.27;14.93;;;15.60;99.90;;;;;;5033442;28;20022;-74
2023/06/19 02:00:50;;;;;;;20.38;14.60;;;15.60;99.90;;;;;;5048916;28;20030;-76
2023/06/19 02:03:15;;;;;;;17.45;11.93;;;15.60;99.90;;;;;;5033435;28;20456;-76
2023/06/19 02:05:42;;;;;;;19.08;13.82;;;15.60;99.90;;;;;;5033603;28;20205;-76
2023/06/19 02:08:07;;;;;;;24.02;14.35;;;15.60;99.90;;;;;;5033479;28;20028;-76
2023/06/19 02:10:33;;;;;;;21.92;15.35;;;15.50;99.90;;;;;;5048742;28;20053;-76
2023/06/19 02:12:59;;;;;;;20.38;14.05;;;15.50;99.90;;;;;;5033222;28;20036;-75
2023/06/19 02:15:24;;;;;;;21.33;14.50;;;15.50;99.90;;;;;;5048718;28;20040;-75
2023/06/19 02:17:54;;;;;;;22.60;14.05;;;15.50;99.90;;;;;;5033170;28;20386;-76
2023/06/19 02:20:26;;;;;;;18.53;13.10;;;15.50;99.90;;;;;;5033438;28;20042;-76
2023/06/19 02:22:52;;;;;;;18.60;12.90;;;15.50;99.90;;;;;;5033527;28;20470;-76
2023/06/19 02:25:19;;;;;;;20.42;14.35;;;15.50;99.90;;;;;;5033108;28;20053;-76
2023/06/19 02:27:45;;;;;;;24.63;15.80;;;15.50;99.90;;;;;;5032619;28;20501;-77
2023/06/19 02:30:11;;;;;;;21.40;15.18;;;15.50;99.90;;;;;;5032926;28;20036;-76
2023/06/19 02:32:37;;;;;;;20.15;13.50;;;15.50;99.90;;;;;;5015101;28;20108;-76
2023/06/19 02:35:04;;;;;;;21.05;14.60;;;15.50;99.90;;;;;;5033052;28;20476;-76
2023/06/19 02:37:30;;;;;;;24.42;14.95;;;15.50;99.90;;;;;;5032765;28;20030;-76
2023/06/19 02:39:55;;;;;;;21.38;13.10;;;15.50;99.90;;;;;;5032765;28;20451;-76
2023/06/19 02:42:21;;;;;;;20.88;14.80;;;15.50;99.90;;;;;;5033034;28;20132;-75
2023/06/19 02:44:47;;;;;;;19.63;14.02;;;15.50;99.90;;;;;;5032949;28;20498;-75
2023/06/19 02:47:12;;;;;;;20.88;14.05;;;15.50;99.90;;;;;;5013725;28;20032;-76
2023/06/19 02:49:38;;;;;;;22.42;14.15;;;15.50;99.90;;;;;;5032892;28;20037;-76
2023/06/19 02:52:04;;;;;;;18.20;13.80;;;15.40;99.90;;;;;;5032796;28;20022;-75
2023/06/19 02:54:30;;;;;;;21.85;13.02;;;15.40;99.90;;;;;;4999914;28;20403;-76
2023/06/19 02:56:56;;;;;;;15.80;10.07;;;15.40;99.90;;;;;;5012712;28;20483;-75
2023/06/19 02:59:22;;;;;;;16.00;10.45;;;15.40;99.90;;;;;;5012898;28;20056;-75
2023/06/19 03:01:47;;;;;;;15.98;11.25;;;15.40;99.90;;;;;;5012844;28;20037;-75
2023/06/19 03:04:13;;;;;;;18.05;9.68;;;15.30;99.90;;;;;;5012993;28;20026;-75
2023/06/19 03:06:39;;;;;;;13.98;9.55;;;15.30;99.90;;;;;;4994730;28;20110;-75
2023/06/19 03:09:11;;;;;;;16.10;10.70;;;15.30;99.90;;;;;;5027710;28;20032;-75
2023/06/19 03:11:41;;;;;;;15.98;10.38;;;15.20;99.90;;;;;;5012844;28;20021;-75
2023/06/19 03:14:07;;;;;;;12.05;8.82;;;15.20;99.90;;;;;;4995249;28;20045;-75
2023/06/19 03:16:34;;;;;;;17.77;10.63;;;15.20;99.90;;;;;;5012410;28;20117;-75
2023/06/19 03:19:00;;;;;;;16.77;10.27;;;15.10;99.90;;;;;;5012474;28;20018;-75
2023/06/19 03:21:26;;;;;;;14.68;10.30;;;15.10;99.90;;;;;;5012179;28;20038;-75
2023/06/19 03:23:52;;;;;;;14.52;9.35;;;15.10;99.90;;;;;;5012280;28;20102;-75
2023/06/19 03:26:19;;;;;;;16.98;10.15;;;15.00;99.90;;;;;;5012739;28;20025;-76
2023/06/19 03:28:47;;;;;;;14.60;9.75;;;15.00;99.90;;;;;;4994760;28;20241;-76
2023/06/19 03:31:12;;;;;;;13.93;9.73;;;15.00;99.90;;;;;;5010984;28;20503;-76
2023/06/19 03:33:38;;;;;;;16.65;10.07;;;14.90;99.90;;;;;;5012329;28;20057;-76
2023/06/19 03:36:04;;;;;;;12.60;8.98;;;14.90;99.90;;;;;;5012312;28;20022;-75
2023/06/19 03:38:30;;;;;;;14.57;9.45;;;14.90;99.90;;;;;;4994420;28;20460;-76
2023/06/19 03:40:55;;;;;;;15.90;9.77;;;14.90;99.90;;;;;;4994771;28;20033;-75
2023/06/19 03:43:21;;;;;;;14.82;9.13;;;14.80;99.90;;;;;;5010740;28;20065;-75
2023/06/19 03:45:47;;;;;;;15.52;9.25;;;14.80;99.90;;;;;;5011967;28;20018;-75
2023/06/19 03:48:12;;;;;;;14.43;8.77;;;14.70;99.90;;;;;;5012221;28;20487;-75
2023/06/19 03:50:38;;;;;;;13.85;9.13;;;14.70;99.90;;;;;;5012152;28;20545;-75
2023/06/19 03:53:04;;;;;;;14.07;8.70;;;14.70;99.90;;;;;;4994633;28;20026;-75
2023/06/19 03:55:30;;;;;;;15.50;8.45;;;14.60;99.90;;;;;;5012337;28;20048;-75
2023/06/19 03:57:56;;;;;;;16.40;8.68;;;14.60;99.90;;;;;;5027476;28;20168;-75
2023/06/19 04:00:22;;;;;;;17.20;8.45;;;14.60;99.90;;;;;;5015718;28;20037;-75
2023/06/19 04:02:47;;;;;;;15.13;8.48;;;14.50;99.90;;;;;;5015953;28;20028;-75
2023/06/19 04:05:15;;;;;;;12.10;8.32;;;14.50;99.90;;;;;;5015894;28;20022;-75
2023/06/19 04:07:41;;;;;;;9.77;6.10;;;14.50;99.90;;;;;;5014449;28;20084;-76
2023/06/19 04:10:07;;;;;;;15.80;7.35;;;14.50;99.90;;;;;;5015916;28;20034;-75
2023/06/19 04:12:33;;;;;;;9.43;6.65;;;14.50;99.90;;;;;;5015724;28;20030;-76
2023/06/19 04:14:58;;;;;;;11.27;6.82;;;14.40;99.90;;;;;;5015544;28;20072;-75
2023/06/19 04:17:24;;;;;;;9.38;5.88;;;14.40;99.90;;;;;;5015583;28;20104;-75
2023/06/19 04:19:49;;;;;;;10.48;6.20;;;14.40;99.90;;;;;;5015050;28;20105;-76
2023/06/19 04:22:15;;;;;;;15.27;8.07;;;14.40;99.90;;;;;;5015565;28;20057;-75
2023/06/19 04:24:41;;;;;;;14.73;8.80;;;14.40;99.90;;;;;;4998139;28;20057;-76
2023/06/19 04:27:08;;;;;;;13.15;8.05;;;14.40;99.90;;;;;;5015617;28;20029;-76
2023/06/19 04:29:34;;;;;;;13.38;8.93;;;14.40;99.90;;;;;;5015593;28;20400;-76
2023/06/19 04:32:00;;;;;;;16.50;8.80;;;14.40;99.90;;;;;;5015437;28;20053;-76
2023/06/19 04:34:26;;;;;;;16.98;8.88;;;14.40;99.90;;;;;;5015369;28;20054;-76
2023/06/19 04:36:52;;;;;;;14.52;9.18;;;14.30;99.90;;;;;;5015172;28;20096;-76
2023/06/19 04:39:17;;;;;;;12.60;8.25;;;14.40;99.90;;;;;;5015414;28;20026;-76
2023/06/19 04:41:44;;;;;;;15.55;9.40;;;14.40;99.90;;;;;;5015513;28;20025;-76
2023/06/19 04:44:12;;;;;;;15.95;9.02;;;14.40;99.90;;;;;;5015191;28;20026;-76
2023/06/19 04:46:38;;;;;;;15.57;9.40;;;14.40;99.90;;;;;;5015209;28;20049;-76
2023/06/19 04:49:05;;;;;;;14.30;9.32;;;14.30;99.90;;;;;;5015047;28;20061;-76
2023/06/19 04:51:32;;;;;;;15.73;9.43;;;14.40;99.90;;;;;;5014949;28;20423;-76
2023/06/19 04:53:59;;;;;;;16.65;11.35;;;14.40;99.90;;;;;;5015106;28;20041;-76
2023/06/19 04:56:24;;;;;;;15.75;9.52;;;14.30;99.90;;;;;;5014900;28;20048;-76
2023/06/19 04:58:51;;;;;;;14.38;9.82;;;14.30;99.90;;;;;;4997407;28;20117;-76
2023/06/19 05:01:17;;;;;;;15.13;9.52;;;14.30;99.90;;;;;;5014880;28;20476;-76
2023/06/19 05:03:48;;;;;;;16.83;10.48;;;14.30;99.90;;;;;;5014836;28;20040;-76
2023/06/19 05:06:14;;;;;;;13.55;8.93;;;14.30;99.90;;;;;;4997134;28;20018;-76
2023/06/19 05:08:39;;;;;;;15.80;9.68;;;14.30;99.90;;;;;;4997267;28;20430;-76
2023/06/19 05:11:05;;;;;;;12.20;8.27;;;14.30;99.90;;;;;;5013737;28;20113;-76
2023/06/19 05:13:31;;;;;;;16.23;8.93;;;14.30;99.90;;;;;;5014625;28;20464;-76
2023/06/19 05:15:56;;;;;;;14.98;9.07;;;14.30;99.90;;;;;;5014819;28;20025;-76
2023/06/19 05:18:22;;;;;;;16.08;9.23;;;14.30;99.90;;;;;;5014470;28;20064;-76
2023/06/19 05:20:48;;;;;;;12.77;8.80;;;14.30;99.90;;;;;;5014477;28;20096;-76
2023/06/19 05:23:13;;;;;;;12.27;7.70;;;14.30;99.90;;;;;;4996941;28;20088;-75
2023/06/19 05:25:39;;;;;;;13.40;9.25;;;14.30;99.90;;;;;;5014598;28;20057;-76
2023/06/19 05:28:05;;;;;;;15.93;9.35;;;14.40;99.90;;;;;;5014684;28;20022;-76
2023/06/19 05:30:31;;;;;;;16.85;8.65;;;14.40;99.90;;;;;;5014329;28;20464;-75
2023/06/19 05:32:57;;;;;;;15.43;9.80;;;14.40;99.90;;;;;;5014121;28;20036;-75
2023/06/19 05:35:23;;;;;;;13.65;9.85;;;14.40;99.90;;;;;;5014368;28;20022;-75
2023/06/19 05:37:48;;;;;;;16.30;9.32;;;14.40;99.90;;;;;;5014261;28;20453;-75
2023/06/19 05:40:14;;;;;;;22.35;11.45;;;14.40;99.90;;;;;;5005880;28;20037;-75
2023/06/19 05:42:41;;;;;;;13.40;9.35;;;14.50;99.90;;;;;;5012643;28;20040;-75
2023/06/19 05:45:07;;;;;;;18.20;10.35;;;14.50;99.90;;;;;;5014327;28;20076;-75
2023/06/19 05:47:33;;;;;;;21.45;10.65;;;14.50;99.90;;;;;;5012744;28;20064;-76
2023/06/19 05:49:59;;;;;;;17.00;9.80;;;14.50;99.90;;;;;;5013992;28;20137;-75
2023/06/19 05:52:25;;;;;;;11.73;8.30;;;14.60;99.90;;;;;;5014109;28;20054;-75
2023/06/19 05:54:53;;;;;;;15.73;10.25;;;14.60;99.90;;;;;;5013921;28;20039;-75
2023/06/19 05:57:20;;;;;;;17.38;10.70;;;14.70;99.90;;;;;;5013841;28;20025;-75
2023/06/19 05:59:50;;;;;;;17.42;9.48;;;14.70;99.90;;;;;;5013875;28;20021;-75
2023/06/19 06:02:19;;;;;;;18.27;9.23;;;14.80;99.90;;;;;;5013703;28;20038;-75
2023/06/19 06:04:45;;;;;;;17.02;9.68;;;14.90;99.90;;;;;;5013858;28;20022;-75
2023/06/19 06:07:11;;;;;;;15.80;8.77;;;14.90;99.90;;;;;;5013716;28;20033;-75
2023/06/19 06:09:37;;;;;;;14.63;9.02;;;15.00;99.90;;;;;;5013608;28;20029;-75
2023/06/19 06:12:03;;;;;;;18.60;9.98;;;15.10;99.90;;;;;;5013688;28;20507;-75
2023/06/19 06:14:29;;;;;;;18.20;9.70;;;15.10;99.90;;;;;;5013985;28;20041;-75
2023/06/19 06:16:55;;;;;;;16.08;9.05;;;15.20;99.90;;;;;;5013294;28;20025;-75
2023/06/19 06:19:23;;;;;;;19.67;8.70;;;15.30;99.90;;;;;;5013572;28;20069;-75
2023/06/19 06:21:49;;;;;;;16.02;9.15;;;15.30;99.90;;;;;;5013489;28;20046;-74
2023/06/19 06:24:15;;;;;;;17.13;9.50;;;15.50;99.90;;;;;;5013279;28;20024;-74
2023/06/19 06:26:41;;;;;;;14.38;8.57;;;15.60;99.90;;;;;;5011738;28;20026;-75
2023/06/19 06:29:07;;;;;;;17.25;8.77;;;15.60;99.90;;;;;;4995415;28;20125;-76
2023/06/19 06:31:34;;;;;;;20.73;9.80;;;15.70;99.90;;;;;;4997812;28;20098;-74
2023/06/19 06:34:00;;;;;;;15.38;9.05;;;15.80;99.90;;;;;;5022121;28;20451;-75
2023/06/19 06:36:26;;;;;;;17.10;9.45;;;15.80;99.90;;;;;;5023671;28;20025;-74
2023/06/19 06:38:51;;;;;;;13.27;8.10;;;15.90;99.90;;;;;;5023673;28;20022;-74
2023/06/19 06:41:17;;;;;;;15.25;8.65;;;16.00;99.90;;;;;;5020975;28;20070;-74
2023/06/19 06:43:43;;;;;;;13.57;8.20;;;16.10;99.90;;;;;;5023238;28;20560;-74
2023/06/19 06:46:10;;;;;;;13.77;7.30;;;16.20;99.90;;;;;;5020763;28;20108;-73
2023/06/19 06:48:36;;;;;;;16.05;7.00;;;16.20;99.90;;;;;;5004121;28;20017;-74
2023/06/19 06:51:02;;;;;;;20.02;8.15;;;16.20;99.90;;;;;;5023058;28;20112;-76
2023/06/19 06:53:28;;;;;;;15.32;7.82;;;16.30;99.90;;;;;;5023233;28;20364;-75
2023/06/19 06:55:55;;;;;;;16.42;8.18;;;16.40;99.90;;;;;;5022256;28;20022;-76
2023/06/19 06:58:21;;;;;;;16.83;8.35;;;16.60;99.90;;;;;;5024725;28;20464;-76
2023/06/19 07:00:47;;;;;;;17.63;7.10;;;16.60;99.90;;;;;;5023101;28;20087;-76
2023/06/19 07:03:13;;;;;;;11.80;6.72;;;16.80;99.90;;;;;;5013816;28;20037;-76
2023/06/19 07:05:38;;;;;;;10.77;6.28;;;16.90;99.90;;;;;;5012703;28;20022;-76
2023/06/19 07:08:04;;;;;;;13.68;7.18;;;17.00;99.90;;;;;;5015827;28;20422;-76
2023/06/19 07:10:30;;;;;;;14.63;7.32;;;17.10;99.90;;;;;;5032307;28;20021;-75
2023/06/19 07:12:56;;;;;;;14.50;6.93;;;17.20;99.90;;;;;;5014405;28;20120;-75
2023/06/19 07:15:22;;;;;;;13.60;7.07;;;17.20;99.90;;;;;;5032299;28;20105;-75
2023/06/19 07:17:48;;;;;;;14.35;6.63;;;17.20;99.90;;;;;;5032386;28;20036;-75
2023/06/19 07:20:14;;;;;;;12.68;6.50;;;17.20;99.90;;;;;;5031477;28;20483;-76
2023/06/19 07:22:43;;;;;;;11.27;6.57;;;17.30;99.90;;;;;;5006219;28;20030;-75
2023/06/19 07:25:11;;;;;;;13.13;6.65;;;17.30;99.90;;;;;;5013939;28;20457;-74
2023/06/19 07:27:36;;;;;;;12.45;6.55;;;17.30;99.90;;;;;;5032097;28;20025;-75
2023/06/19 07:30:02;;;;;;;14.30;6.85;;;17.30;99.90;;;;;;5031994;28;20035;-75
2023/06/19 07:32:28;;;;;;;15.65;5.85;;;17.40;99.90;;;;;;5031786;28;20124;-75
2023/06/19 07:34:54;;;;;;;11.93;6.00;;;17.40;99.90;;;;;;5031888;28;20097;-76
2023/06/19 07:37:20;;;;;;;11.85;5.75;;;17.50;99.90;;;;;;5012374;28;20486;-75
2023/06/19 07:39:50;;;;;;;15.93;6.10;;;17.50;99.90;;;;;;5012082;28;20530;-76
2023/06/19 07:42:16;;;;;;;21.20;6.13;;;17.60;99.90;;;;;;5020561;28;20018;-77
2023/06/19 07:44:43;;;;;;;12.60;5.57;;;17.60;99.90;;;;;;5013376;28;20021;-75
2023/06/19 07:47:10;;;;;;;16.60;5.95;;;17.60;99.90;;;;;;5014303;28;20025;-77
2023/06/19 07:49:36;;;;;;;11.35;5.68;;;17.70;99.90;;;;;;5031981;28;20037;-76
2023/06/19 07:52:02;;;;;;;11.75;5.72;;;17.70;99.90;;;;;;5028726;28;20074;-77
2023/06/19 07:54:28;;;;;;;15.07;6.18;;;17.80;99.90;;;;;;5032114;28;20036;-76
2023/06/19 07:56:54;;;;;;;14.35;5.47;;;17.80;99.90;;;;;;5026840;28;20026;-77
2023/06/19 07:59:20;;;;;;;10.55;5.82;;;17.80;99.90;;;;;;5004653;28;20057;-78
2023/06/19 08:01:46;;;;;;;7.97;4.55;;;17.80;99.90;;;;;;5012335;28;20413;-78
2023/06/19 08:04:12;;;;;;;13.20;5.93;;;17.70;99.90;;;;;;5031560;28;20101;-78
2023/06/19 08:06:37;;;;;;;8.40;4.70;;;17.70;99.90;;;;;;5031574;28;20064;-76
2023/06/19 08:09:03;;;;;;;7.90;4.70;;;17.70;99.90;;;;;;5038286;28;20034;-85
2023/06/19 08:11:29;;;;;;;12.73;5.47;;;17.70;99.90;;;;;;5004893;28;20029;-76
2023/06/19 08:13:55;;;;;;;9.18;4.80;;;17.70;99.90;;;;;;5012130;28;20025;-76
2023/06/19 08:16:21;;;;;;;9.77;5.00;;;17.90;99.90;;;;;;5012069;28;20095;-81
2023/06/19 08:18:47;;;;;;;9.73;4.90;;;18.00;99.90;;;;;;4994032;28;20464;-76
2023/06/19 08:21:13;;;;;;;13.68;5.55;;;18.00;99.90;;;;;;5026040;28;20045;-76
2023/06/19 08:23:40;;;;;;;11.02;4.72;;;18.00;99.90;;;;;;5011948;28;20030;-76
2023/06/19 08:26:07;;;;;;;8.38;4.55;;;18.00;99.90;;;;;;4994071;28;20481;-77
2023/06/19 08:28:33;;;;;;;6.40;4.50;;;18.00;99.90;;;;;;5026241;28;20029;-80
2023/06/19 08:30:59;;;;;;;8.43;4.35;;;18.00;99.90;;;;;;5023775;28;20058;-77
2023/06/19 08:33:25;;;;;;;10.68;4.30;;;18.10;99.90;;;;;;5011799;28;20124;-77
2023/06/19 08:35:51;;;;;;;7.35;4.10;;;18.20;99.90;;;;;;5026331;28;20026;-77
2023/06/19 08:38:16;;;;;;;8.35;4.40;;;18.30;99.90;;;;;;5011686;28;20038;-77
2023/06/19 08:40:43;;;;;;;7.07;4.20;;;18.30;99.90;;;;;;5010876;28;20073;-77
2023/06/19 08:43:09;;;;;;;12.63;4.13;;;18.40;99.90;;;;;;5012875;28;20037;-78
2023/06/19 08:45:35;;;;;;;9.35;4.00;;;18.50;99.90;;;;;;5011896;28;20022;-76
2023/06/19 08:48:05;;;;;;;7.65;4.22;;;18.60;99.90;;;;;;5015073;28;20065;-77
2023/06/19 08:50:32;;;;;;;11.43;4.70;;;18.60;99.90;;;;;;5019156;28;20026;-76
2023/06/19 08:52:58;;;;;;;7.25;4.28;;;18.70;99.90;;;;;;5034653;28;20463;-74
2023/06/19 08:55:24;;;;;;;5.25;3.90;;;18.70;99.90;;;;;;5018031;28;20064;-76
2023/06/19 08:57:52;;;;;;;7.75;4.38;;;18.80;99.90;;;;;;5018770;28;20018;-76
2023/06/19 09:00:26;;;;;;;6.43;3.85;;;18.90;99.90;;;;;;5017386;28;20018;-76
2023/06/19 09:02:57;;;;;;;7.35;4.30;;;19.10;99.90;;;;;;5022036;28;20048;-76
2023/06/19 09:05:23;;;;;;;7.40;4.05;;;19.20;99.90;;;;;;5020771;28;20017;-76
2023/06/19 09:08:03;;;;;;;8.15;4.10;;;19.30;99.90;;;;;;5022043;28;20444;-77
2023/06/19 09:10:30;;;;;;;6.82;3.97;;;19.30;99.90;;;;;;5027049;28;20026;-77
2023/06/19 09:13:05;;;;;;;8.82;4.10;;;19.30;99.90;;;;;;5014781;28;20014;-76
2023/06/19 09:15:34;;;;;;;7.72;4.25;;;19.30;99.90;;;;;;5022367;28;20020;-76
2023/06/19 09:18:09;;;;;;;7.03;4.10;;;19.30;99.90;;;;;;5029410;28;20021;-76
2023/06/19 09:20:40;;;;;;;7.32;3.78;;;19.30;99.90;;;;;;5019966;28;20053;-76
2023/06/19 09:23:05;;;;;;;8.52;4.03;;;19.30;99.90;;;;;;5016919;28;20120;-77
2023/06/19 09:25:31;;;;;;;7.68;4.10;;;19.40;99.90;;;;;;5019754;28;20113;-76
2023/06/19 09:27:57;;;;;;;7.35;4.40;;;19.50;99.90;;;;;;5017610;28;20482;-77
2023/06/19 09:30:23;;;;;;;6.57;3.90;;;19.50;99.90;;;;;;4996625;28;20038;-76
2023/06/19 09:32:49;;;;;;;9.70;4.28;;;19.60;99.90;;;;;;4996127;28;20026;-76
2023/06/19 09:35:15;;;;;;;11.88;4.32;;;19.60;99.90;;;;;;5014480;28;20489;-77
2023/06/19 09:37:41;;;;;;;7.55;4.10;;;19.70;99.90;;;;;;5014263;28;20030;-76
2023/06/19 09:40:10;;;;;;;6.72;4.30;;;19.90;99.90;;;;;;5014347;28;20029;-76
2023/06/19 09:42:42;;;;;;;6.30;3.65;;;20.00;99.90;;;;;;5013767;28;20357;-77
2023/06/19 09:45:10;;;;;;;5.45;3.47;;;20.10;99.90;;;;;;5018240;28;20109;-77
2023/06/19 09:47:39;;;;;;;8.13;3.95;;;20.20;99.90;;;;;;5037883;28;20022;-76
2023/06/19 09:50:06;;;;;;;10.02;3.92;;;20.40;99.90;;;;;;5021779;28;20021;-77
2023/06/19 09:52:33;;;;;;;11.07;3.63;;;20.60;99.90;;;;;;5018750;28;20097;-76
2023/06/19 09:55:05;;;;;;;6.35;3.70;;;20.70;99.90;;;;;;5004388;28;20030;-80
2023/06/19 09:57:32;;;;;;;8.27;3.88;;;20.90;99.90;;;;;;5023903;28;20017;-80
2023/06/19 10:00:02;;;;;;;7.43;3.47;;;21.10;99.90;;;;;;5009468;28;20438;-77
2023/06/19 10:02:28;;;;;;;6.65;3.80;;;21.30;99.90;;;;;;5013827;28;20021;-78
2023/06/19 10:04:55;;;;;;;7.88;3.83;;;21.40;99.90;;;;;;5023377;28;20040;-77
2023/06/19 10:07:27;;;;;;;7.63;3.42;;;21.40;99.90;;;;;;5021422;28;20076;-76
2023/06/19 10:10:00;;;;;;;7.57;3.88;;;21.50;99.90;;;;;;5022652;28;20049;-76
2023/06/19 10:12:46;;;;;;;10.20;3.67;;;21.50;99.90;;;;;;5024432;28;20029;-81
2023/06/19 10:15:21;;;;;;;9.60;4.00;;;21.40;99.90;;;;;;5021217;28;20033;-76
2023/06/19 10:17:54;;;;;;;8.32;4.28;;;21.30;99.60;;;;;;5021921;28;20029;-79
2023/06/19 10:20:44;;;;;;;10.18;4.15;;;21.10;99.40;;;;;;5004139;28;20056;-79
2023/06/19 10:23:18;;;;;;;;;;;21.10;99.90;;;;;;5024158;28;20476;-77
2023/06/19 10:25:45;;;;;;;6.63;3.78;;;21.10;99.90;;;;;;5005573;28;20310;-79
2023/06/19 10:28:18;;;;;;;7.53;3.55;;;21.10;99.90;;;;;;5023244;28;20025;-79
2023/06/19 10:30:44;;;;;;;9.23;4.20;;;21.30;99.90;;;;;;5005984;28;20391;-76
2023/06/19 10:33:09;;;;;;;8.13;4.03;;;21.50;99.50;;;;;;5033044;28;20040;-78
2023/06/19 10:35:41;;;;;;;8.73;4.60;;;21.60;99.00;;;;;;5014999;28;20025;-75
2023/06/19 10:38:08;;;;;;;8.73;4.72;;;21.70;98.50;;;;;;5033053;28;20033;-78
2023/06/19 10:40:36;;;;;;;6.45;3.20;;;21.80;97.70;;;;;;5032174;28;20040;-78
2023/06/19 10:43:03;;;;;;;5.28;3.33;;;21.70;96.10;;;;;;5021352;28;20030;-77
2023/06/19 10:45:29;;;;;;;6.00;3.33;;;21.80;95.60;;;;;;5020999;28;20020;-76
2023/06/19 10:47:55;;;;;;;8.00;3.67;;;22.00;95.50;;;;;;5020215;28;20022;-79
2023/06/19 10:50:22;;;;;;;6.60;2.92;;;22.20;95.30;;;;;;5023614;28;20075;-75
2023/06/19 10:52:52;;;;;;;6.43;3.75;;;22.50;94.90;;;;;;5019147;28;20503;-76
2023/06/19 10:55:18;;;;;;;6.93;3.38;;;22.90;93.60;;;;;;5026449;28;20534;-77
2023/06/19 10:57:49;;;;;;;5.43;3.83;;;23.10;92.70;;;;;;5014516;28;20025;-76
2023/06/19 11:00:26;;;;;;;6.03;3.60;;;23.20;91.50;;;;;;5032118;28;20036;-78
2023/06/19 11:02:52;;;;;;;6.50;3.72;;;23.30;91.40;;;;;;5008820;28;20030;-76
2023/06/19 11:05:22;;;;;;;5.65;3.40;;;23.40;90.90;;;;;;5023344;28;20041;-77
2023/06/19 11:07:56;;;;;;;5.68;3.00;;;23.50;90.70;;;;;;5031645;28;20048;-76
2023/06/19 11:10:24;;;;;;;4.93;2.83;;;23.70;90.20;;;;;;5028781;28;20026;-77
2023/06/19 11:12:54;;;;;;;8.18;3.83;;;23.50;88.30;;;;;;5023339;28;20029;-77
2023/06/19 11:15:20;;;;;;;8.20;3.70;;;23.30;87.50;;;;;;5031498;28;20100;-78
2023/06/19 11:17:47;;;;;;;6.88;3.72;;;23.40;88.10;;;;;;5013869;28;20125;-77
2023/06/19 11:20:16;;;;;;;7.47;3.92;;;23.40;87.30;;;;;;5041826;28;20504;-76
2023/06/19 11:22:41;;;;;;;7.18;3.30;;;23.30;86.80;;;;;;5011866;28;20595;-76
2023/06/19 11:25:09;;;;;;;9.50;3.28;;;23.20;86.50;;;;;;4994073;28;20341;-76
2023/06/19 11:27:39;;;;;;;7.85;2.83;;;23.10;86.90;;;;;;5012256;28;20060;-77
2023/06/19 11:30:07;;;;;;;6.63;3.40;;;23.00;86.40;;;;;;5002433;28;20356;-75
2023/06/19 11:32:40;;;;;;;6.88;3.40;;;22.80;86.00;;;;;;5023753;28;20025;-76
2023/06/19 11:35:08;;;;;;;7.25;3.13;;;22.70;85.60;;;;;;4994237;28;20399;-76
2023/06/19 11:37:35;;;;;;;5.90;3.55;;;22.70;86.20;;;;;;5008907;28;20028;-76
2023/06/19 11:40:04;;;;;;;5.78;3.35;;;22.80;86.80;;;;;;5025511;28;20545;-75
2023/06/19 11:42:30;;;;;;;9.38;3.20;;;22.90;87.40;;;;;;5014260;28;20029;-77
2023/06/19 11:45:02;;;;;;;10.05;3.42;;;22.90;88.20;;;;;;5032130;28;20067;-75
2023/06/19 11:47:31;;;;;;;6.68;3.58;;;23.00;88.30;;;;;;5013952;28;20029;-74
2023/06/19 11:49:57;;;;;;;9.38;4.68;;;23.10;89.00;;;;;;5028500;28;20026;-75
2023/06/19 11:52:23;;;;;;;8.23;3.83;;;23.10;88.60;;;;;;4994522;28;20117;-76
2023/06/19 11:54:49;;;;;;;5.57;3.22;;;23.00;87.60;;;;;;5011749;28;20104;-73
2023/06/19 11:57:14;;;;;;;8.88;3.97;;;22.90;87.90;;;;;;5022729;28;20075;-76
2023/06/19 11:59:41;;;;;;;8.10;4.30;;;23.00;87.90;;;;;;5031756;28;20469;-75
2023/06/19 12:02:07;;;;;;;6.88;3.92;;;23.20;88.40;;;;;;5029788;28;20353;-75
2023/06/19 12:04:33;;;;;;;8.93;3.58;;;23.30;88.00;;;;;;5031586;28;20021;-75
2023/06/19 12:06:59;;;;;;;8.98;3.28;;;23.50;86.40;;;;;;5031900;28;20478;-75
2023/06/19 12:09:25;;;;;;;5.07;2.90;;;23.80;85.90;;;;;;5031245;28;20017;-76
2023/06/19 12:11:51;;;;;;;5.88;2.83;;;23.90;83.80;;;;;;5012695;28;20030;-74
2023/06/19 12:14:18;;;;;;;11.50;3.05;;;24.10;80.40;;;;;;5032149;28;20411;-76
2023/06/19 12:16:45;;;;;;;6.72;3.28;;;24.30;80.00;;;;;;5029432;28;20336;-74
2023/06/19 12:19:11;;;;;;;6.55;2.78;;;24.60;79.00;;;;;;5031213;28;20028;-75
2023/06/19 12:21:36;;;;;;;6.22;3.20;;;24.80;77.30;;;;;;5055714;28;20053;-74
2023/06/19 12:24:02;;;;;;;4.43;2.63;;;24.80;76.20;;;;;;5054547;28;20033;-76
2023/06/19 12:26:28;;;;;;;6.35;3.58;;;24.90;75.10;;;;;;5054831;28;20109;-74
2023/06/19 12:28:53;;;;;;;10.05;3.70;;;25.00;74.20;;;;;;5036990;28;20029;-74
2023/06/19 12:31:19;;;;;;;6.07;3.22;;;25.10;74.50;;;;;;5055164;28;20032;-75
2023/06/19 12:33:47;;;;;;;4.60;3.30;;;25.10;74.30;;;;;;5053681;28;20029;-75
2023/06/19 12:36:16;;;;;;;5.95;3.25;;;25.00;73.00;;;;;;5054982;28;20017;-74